METAR Data

Data at: 2309 UTC 19 Jan 2019

METAR for:EGLF (Farnborough Arpt, --, UK)
Text:EGLF 191950Z 07009KT 8000 SCT006 BKN014 04/03 Q1009
Temperature: 4.0°C ( 39°F)
Dewpoint: 3.0°C ( 37°F) [RH = 93%]
Pressure (altimeter):29.79 inches Hg (1009.0 mb)
Winds:from the ENE (70 degrees) at 10 MPH (9 knots; 4.6 m/s)
Visibility: 5 sm ( 8 km)
Ceiling:1400 feet AGL
Clouds: scattered clouds at 600 feet AGL, broken clouds at 1400 feet AGL

TAF for:EGLF (Farnborough Arpt, --, UK) issued at 1700 UTC 19 Jan 2019
Text:TAF EGLF 191700Z 1918/1920 11008KT 9999 BKN007
Forecast period:1800 to 2000 UTC 19 January 2019
Forecast type:FROM: standard forecast or significant change
Winds:from the ESE (110 degrees) at 9 MPH (8 knots; 4.1 m/s)
Visibility:6 or more sm (10+ km)
Ceiling:700 feet AGL
Clouds: broken clouds at 700 feet AGL
Text:PROB40
Forecast period:1800 to 2000 UTC 19 January 2019
Forecast type:TEMPORARY: The following changes expected for less than half the time period
Visibility: 1.86 sm ( 2.99 km)
Ceiling:400 feet AGL
Clouds: broken clouds at 400 feet AGL
Weather:-DZ BR (light drizzle, mist)

METAR for:EGUB (Benson(RAF), --, UK)
Text:EGUB 192250Z AUTO 08004KT 9999 // FEW012/// BKN016/// 03/02 Q1011
Temperature: 3.0°C ( 37°F)
Dewpoint: 2.0°C ( 36°F) [RH = 93%]
Pressure (altimeter):29.85 inches Hg (1011.0 mb)
Winds:from the E (80 degrees) at 5 MPH (4 knots; 2.1 m/s)
Visibility:6 or more sm (10+ km)
Ceiling:1600 feet AGL
Clouds: few clouds at 1200 feet AGL, broken clouds at 1600 feet AGL

TAF for:EGUB (Benson(RAF), --, UK)
Text:No data found

METAR for:EGVO (Odiham(RAF), --, UK)
Text:EGVO 192250Z AUTO 06004KT 8000 BR OVC009/// 03/02 Q1010
Temperature: 3.0°C ( 37°F)
Dewpoint: 2.0°C ( 36°F) [RH = 93%]
Pressure (altimeter):29.82 inches Hg (1010.0 mb)
Winds:from the ENE (60 degrees) at 5 MPH (4 knots; 2.1 m/s)
Visibility: 5 sm ( 8 km)
Ceiling:900 feet AGL
Clouds: overcast cloud deck at 900 feet AGL
Weather:BR (mist)

TAF for:EGVO (Odiham(RAF), --, UK)
Text:No data found

METAR for:EGTK (Oxford Arpt, --, UK)
Text:EGTK 192220Z 10003KT 9999 OVC022 04/03 Q1010
Temperature: 4.0°C ( 39°F)
Dewpoint: 3.0°C ( 37°F) [RH = 93%]
Pressure (altimeter):29.82 inches Hg (1010.0 mb)
Winds:from the E (100 degrees) at 3 MPH (3 knots; 1.5 m/s)
Visibility:6 or more sm (10+ km)
Ceiling:2200 feet AGL
Clouds: overcast cloud deck at 2200 feet AGL

TAF for:EGTK (Oxford Arpt, --, UK) issued at 2137 UTC 19 Jan 2019
Text:TAF AMD EGTK 192137Z 1921/1923 12009KT 9999 SCT016
Forecast period:2100 to 2300 UTC 19 January 2019
Forecast type:FROM: standard forecast or significant change
Winds:from the ESE (120 degrees) at 10 MPH (9 knots; 4.6 m/s)
Visibility:6 or more sm (10+ km)
Ceiling:at least 12,000 feet AGL
Clouds: scattered clouds at 1600 feet AGL
Text:PROB40
Forecast period:2100 to 2300 UTC 19 January 2019
Forecast type:TEMPORARY: The following changes expected for less than half the time period
Visibility: 4 sm ( 7 km)
Ceiling:700 feet AGL
Clouds: broken clouds at 700 feet AGL

METAR for:EGHH (Bournemouth Intl, --, UK)
Text:EGHH 192220Z 06006KT 9000 BKN007 BKN028 05/04 Q1009
Temperature: 5.0°C ( 41°F)
Dewpoint: 4.0°C ( 39°F) [RH = 93%]
Pressure (altimeter):29.79 inches Hg (1009.0 mb)
Winds:from the ENE (60 degrees) at 7 MPH (6 knots; 3.1 m/s)
Visibility: 6 sm ( 9 km)
Ceiling:700 feet AGL
Clouds: broken clouds at 700 feet AGL, broken clouds at 2800 feet AGL

TAF for:EGHH (Bournemouth Intl, --, UK) issued at 2303 UTC 19 Jan 2019
Text:TAF EGHH 192303Z 2000/2009 06005KT 9999 BKN016
Forecast period:0000 to 0900 UTC 20 January 2019
Forecast type:FROM: standard forecast or significant change
Winds:from the ENE (60 degrees) at 6 MPH (5 knots; 2.6 m/s)
Visibility:6 or more sm (10+ km)
Ceiling:1600 feet AGL
Clouds: broken clouds at 1600 feet AGL
Text:TEMPO 2000/2009 8000 BKN007
Forecast period:0000 to 0900 UTC 20 January 2019
Forecast type:TEMPORARY: The following changes expected for less than half the time period
Visibility: 5 sm ( 8 km)
Ceiling:700 feet AGL
Clouds: broken clouds at 700 feet AGL
Text:PROB30
Forecast period:0000 to 0600 UTC 20 January 2019
Forecast type:TEMPORARY: The following changes expected for less than half the time period
Visibility: 2.49 sm ( 4.01 km)
Ceiling:400 feet AGL
Clouds: broken clouds at 400 feet AGL
Weather:-DZ (light drizzle)

METAR for:
Text:No data found

TAF for:
Text:No data found